Time;durP1;ratioP1;P1;durP2;ratioP2;P2;SDS_P1;SDS_P2;PMS_P1;PMS_P2;Temp;Humidity;BMP_temperature;BMP_pressure;BME280_temperature;BME280_humidity;BME280_pressure;Samples;Min_cycle;Max_cycle;Signal;HPM_P1;HPM_P2
2023/01/20 00:01:42;;;;;;;10.13;6.50;;;3.40;99.90;;;;;;5037067;28;20418;-78
2023/01/20 00:04:08;;;;;;;12.85;7.57;;;3.40;99.90;;;;;;5037498;28;20030;-77
2023/01/20 00:06:34;;;;;;;14.73;8.32;;;3.30;99.90;;;;;;5036021;28;20030;-78
2023/01/20 00:09:02;;;;;;;13.68;8.95;;;3.30;99.90;;;;;;5036023;28;20087;-78
2023/01/20 00:11:28;;;;;;;18.20;9.73;;;3.30;99.90;;;;;;5035602;28;20033;-78
2023/01/20 00:13:59;;;;;;;19.92;10.68;;;3.40;99.90;;;;;;5036076;28;20378;-78
2023/01/20 00:16:25;;;;;;;24.23;13.48;;;3.40;99.90;;;;;;5036149;28;20026;-78
2023/01/20 00:18:51;;;;;;;44.28;14.70;;;3.30;99.90;;;;;;5035871;28;20029;-78
2023/01/20 00:21:17;;;;;;;38.38;15.68;;;3.30;99.90;;;;;;5036312;28;20029;-78
2023/01/20 00:23:44;;;;;;;25.15;15.13;;;3.30;99.90;;;;;;5018998;28;20056;-78
2023/01/20 00:26:16;;;;;;;27.55;16.05;;;3.40;99.90;;;;;;5035433;28;20033;-78
2023/01/20 00:28:42;;;;;;;27.38;16.85;;;3.40;99.90;;;;;;5035577;28;20029;-78
2023/01/20 00:31:19;;;;;;;30.63;18.38;;;3.50;99.90;;;;;;5018488;28;20045;-78
2023/01/20 00:33:46;;;;;;;33.45;20.00;;;3.50;99.90;;;;;;5036469;28;20029;-78
2023/01/20 00:36:13;;;;;;;33.45;21.02;;;3.60;99.90;;;;;;5035028;28;20033;-78
2023/01/20 00:38:38;;;;;;;38.40;23.02;;;3.60;99.90;;;;;;5035115;28;20026;-78
2023/01/20 00:41:05;;;;;;;37.70;22.52;;;3.70;99.90;;;;;;5018362;28;20407;-78
2023/01/20 00:43:31;;;;;;;34.78;22.42;;;3.60;99.90;;;;;;5035528;28;20528;-78
2023/01/20 00:45:56;;;;;;;43.47;25.10;;;3.60;99.90;;;;;;5034893;28;20084;-80
2023/01/20 00:48:22;;;;;;;42.67;25.10;;;3.60;99.90;;;;;;5035335;28;20045;-80
2023/01/20 00:50:48;;;;;;;40.95;25.13;;;3.70;99.90;;;;;;5018485;28;20428;-78
2023/01/20 00:53:14;;;;;;;47.08;27.08;;;3.70;99.90;;;;;;5018375;28;20513;-78
2023/01/20 00:55:39;;;;;;;46.20;26.20;;;3.70;99.90;;;;;;5034762;28;20026;-78
2023/01/20 00:58:05;;;;;;;46.65;25.73;;;3.60;99.90;;;;;;5036131;28;20029;-78
2023/01/20 01:00:31;;;;;;;43.50;26.70;;;3.60;99.90;;;;;;5034630;28;20048;-78
2023/01/20 01:02:56;;;;;;;46.33;25.38;;;3.60;99.90;;;;;;5018278;28;20052;-80
2023/01/20 01:05:22;;;;;;;47.45;27.35;;;3.50;99.90;;;;;;5034722;28;20481;-81
2023/01/20 01:07:48;;;;;;;44.78;27.45;;;3.50;99.90;;;;;;5017876;28;20040;-78
2023/01/20 01:10:14;;;;;;;45.17;26.05;;;3.40;99.90;;;;;;5002290;28;20025;-78
2023/01/20 01:12:40;;;;;;;47.28;26.20;;;3.50;99.90;;;;;;5035144;28;20033;-78
2023/01/20 01:15:06;;;;;;;49.38;26.75;;;3.40;99.90;;;;;;5034619;28;20034;-78
2023/01/20 01:17:32;;;;;;;49.92;27.10;;;3.40;99.90;;;;;;5035654;28;20057;-78
2023/01/20 01:19:57;;;;;;;46.60;27.05;;;3.40;99.90;;;;;;5035669;28;20040;-79
2023/01/20 01:22:23;;;;;;;48.72;27.45;;;3.40;99.90;;;;;;5017905;28;20505;-78
2023/01/20 01:24:49;;;;;;;46.10;26.65;;;3.40;99.90;;;;;;5017769;28;20123;-78
2023/01/20 01:27:14;;;;;;;47.47;28.08;;;3.40;99.90;;;;;;5035335;28;20079;-78
2023/01/20 01:29:40;;;;;;;43.63;26.15;;;3.40;99.90;;;;;;5018130;28;20033;-78
2023/01/20 01:32:06;;;;;;;47.67;26.05;;;3.40;99.90;;;;;;5033723;28;20034;-79
2023/01/20 01:34:32;;;;;;;47.25;27.15;;;3.40;99.90;;;;;;5035397;28;20024;-78
2023/01/20 01:36:58;;;;;;;37.47;23.55;;;3.40;99.90;;;;;;5034900;28;20478;-78
2023/01/20 01:39:24;;;;;;;38.22;23.02;;;3.40;99.90;;;;;;5034570;28;20108;-79
2023/01/20 01:41:50;;;;;;;36.72;22.92;;;3.40;99.90;;;;;;5034962;28;20502;-78
2023/01/20 01:44:16;;;;;;;38.70;23.02;;;3.40;99.90;;;;;;5035664;28;20450;-80
2023/01/20 01:46:42;;;;;;;39.15;23.73;;;3.40;99.90;;;;;;5017065;28;20073;-78
2023/01/20 01:49:23;;;;;;;36.70;22.83;;;3.50;99.90;;;;;;5033855;28;20032;-78
2023/01/20 01:52:01;;;;;;;31.73;21.00;;;3.50;99.90;;;;;;5033979;28;20029;-78
2023/01/20 01:54:34;;;;;;;32.50;20.48;;;3.50;99.90;;;;;;5034313;28;20026;-79
2023/01/20 01:57:00;;;;;;;34.47;20.48;;;3.50;99.90;;;;;;5033972;28;20021;-78
2023/01/20 01:59:26;;;;;;;32.08;20.17;;;3.50;99.90;;;;;;5033428;28;20492;-78
2023/01/20 02:01:52;;;;;;;33.13;20.83;;;3.50;99.90;;;;;;5034712;28;20378;-78
2023/01/20 02:04:21;;;;;;;27.83;19.20;;;3.50;99.90;;;;;;5033501;28;20067;-80
2023/01/20 02:07:03;;;;;;;30.45;19.30;;;3.50;99.90;;;;;;5034923;28;20029;-78
2023/01/20 02:09:30;;;;;;;30.58;19.58;;;3.50;99.90;;;;;;5034170;28;20032;-78
2023/01/20 02:12:01;;;;;;;34.63;20.02;;;3.50;99.90;;;;;;5034150;28;20029;-77
2023/01/20 02:14:42;;;;;;;29.20;18.70;;;3.50;99.90;;;;;;5033889;28;20067;-80
2023/01/20 02:17:08;;;;;;;30.52;19.40;;;3.50;99.90;;;;;;5033892;28;20147;-77
2023/01/20 02:19:42;;;;;;;32.47;19.80;;;3.50;99.90;;;;;;5032848;28;20025;-78
2023/01/20 02:22:25;;;;;;;36.00;21.88;;;3.50;99.90;;;;;;5032821;28;20125;-78
2023/01/20 02:25:10;;;;;;;31.77;20.97;;;3.50;99.90;;;;;;5034362;28;20025;-78
2023/01/20 02:28:12;;;;;;;36.85;22.30;;;3.60;99.90;;;;;;5034375;28;20104;-78
2023/01/20 02:31:06;;;;;;;35.50;21.88;;;3.60;99.90;;;;;;5033878;28;20116;-78
2023/01/20 02:34:06;;;;;;;35.30;22.10;;;3.60;99.90;;;;;;5032996;28;20026;-78
2023/01/20 02:36:52;;;;;;;35.70;20.85;;;3.60;99.90;;;;;;5032788;28;20040;-78
2023/01/20 02:39:39;;;;;;;37.92;20.13;;;3.70;99.90;;;;;;5034096;28;20061;-79
2023/01/20 02:42:13;;;;;;;31.73;20.05;;;3.70;99.90;;;;;;5033706;28;20116;-78
2023/01/20 02:44:55;;;;;;;36.63;21.38;;;3.80;99.90;;;;;;5033128;28;20091;-78
2023/01/20 02:47:33;;;;;;;33.87;20.17;;;3.70;99.90;;;;;;5032535;28;20136;-78
2023/01/20 02:50:08;;;;;;;30.63;19.25;;;3.70;99.90;;;;;;5034069;28;20029;-79
2023/01/20 02:52:44;;;;;;;33.35;19.67;;;3.70;99.90;;;;;;5034173;28;20025;-79
2023/01/20 02:55:18;;;;;;;32.28;19.85;;;3.60;99.90;;;;;;5032674;28;20026;-80
2023/01/20 02:57:50;;;;;;;37.33;20.95;;;3.60;99.90;;;;;;5032827;28;20099;-78
2023/01/20 03:00:36;;;;;;;34.87;20.60;;;3.60;99.90;;;;;;5032958;28;20438;-82
2023/01/20 03:03:06;;;;;;;36.33;22.40;;;3.60;99.90;;;;;;5033656;28;20474;-78
2023/01/20 03:05:36;;;;;;;38.20;22.67;;;3.50;99.90;;;;;;5032661;28;20025;-78
2023/01/20 03:08:07;;;;;;;38.33;23.45;;;3.50;99.90;;;;;;5034041;28;20025;-81
2023/01/20 03:10:35;;;;;;;39.42;23.77;;;3.50;99.90;;;;;;5032491;28;20037;-78
2023/01/20 03:13:20;;;;;;;42.20;23.42;;;3.40;99.90;;;;;;5033660;28;20025;-78
2023/01/20 03:15:59;;;;;;;39.58;22.63;;;3.40;99.90;;;;;;5033602;28;20078;-78
2023/01/20 03:18:27;;;;;;;47.25;26.05;;;3.40;99.90;;;;;;5033904;28;20030;-78
2023/01/20 03:20:53;;;;;;;46.47;25.70;;;3.40;99.90;;;;;;5033666;28;20049;-78
2023/01/20 03:23:19;;;;;;;43.80;24.48;;;3.40;99.90;;;;;;5032747;28;20065;-78
2023/01/20 03:25:46;;;;;;;45.08;24.77;;;3.40;99.90;;;;;;5016080;28;20022;-78
2023/01/20 03:28:13;;;;;;;43.38;24.63;;;3.40;99.90;;;;;;5033509;28;20045;-78
2023/01/20 03:30:38;;;;;;;44.38;25.38;;;3.40;99.90;;;;;;5032232;28;20033;-82
2023/01/20 03:33:04;;;;;;;43.35;26.50;;;3.40;99.90;;;;;;5015606;28;20036;-79
2023/01/20 03:35:31;;;;;;;46.63;27.13;;;3.40;99.90;;;;;;4999484;28;20355;-78
2023/01/20 03:37:56;;;;;;;45.97;26.25;;;3.40;99.90;;;;;;5016042;28;20104;-79
2023/01/20 03:40:27;;;;;;;45.55;26.02;;;3.40;99.90;;;;;;5032398;28;20475;-78
2023/01/20 03:42:59;;;;;;;45.88;25.33;;;3.40;99.90;;;;;;5032392;28;20026;-78
2023/01/20 03:45:28;;;;;;;49.30;26.08;;;3.30;99.90;;;;;;5031992;28;20445;-78
2023/01/20 03:48:20;;;;;;;52.90;28.38;;;3.30;99.90;;;;;;5033968;28;20398;-79
2023/01/20 03:50:56;;;;;;;52.85;28.08;;;3.30;99.90;;;;;;5032530;28;20030;-78
2023/01/20 03:53:45;;;;;;;56.40;28.88;;;3.20;99.90;;;;;;5033422;28;20041;-78
2023/01/20 03:56:20;;;;;;;57.95;29.02;;;3.20;99.90;;;;;;5032994;28;20033;-78
2023/01/20 03:58:49;;;;;;;55.15;29.02;;;3.20;99.90;;;;;;5033353;28;20108;-78
2023/01/20 04:01:17;;;;;;;55.58;28.13;;;3.20;99.90;;;;;;5033142;28;20122;-80
2023/01/20 04:03:45;;;;;;;53.15;27.33;;;3.30;99.90;;;;;;5032683;28;20346;-78
2023/01/20 04:06:14;;;;;;;53.67;28.35;;;3.30;99.90;;;;;;5033414;28;20025;-78
2023/01/20 04:09:03;;;;;;;61.88;31.27;;;3.40;99.90;;;;;;5032357;28;20069;-78
2023/01/20 04:11:30;;;;;;;61.63;30.40;;;3.40;99.90;;;;;;5032399;28;20568;-78
2023/01/20 04:13:55;;;;;;;58.05;29.15;;;3.40;99.90;;;;;;5031663;28;20041;-82
2023/01/20 04:16:23;;;;;;;64.43;30.95;;;3.40;99.90;;;;;;5015977;28;20381;-77
2023/01/20 04:18:50;;;;;;;61.50;30.25;;;3.30;99.90;;;;;;5031884;28;20053;-79
2023/01/20 04:21:47;;;;;;;56.03;28.50;;;3.30;99.90;;;;;;5031715;28;20026;-78
2023/01/20 04:24:50;;;;;;;59.90;30.67;;;3.20;99.90;;;;;;5032393;28;20038;-78
2023/01/20 04:27:16;;;;;;;62.17;30.15;;;3.20;99.90;;;;;;5010918;28;20046;-78
2023/01/20 04:29:41;;;;;;;67.70;32.95;;;3.20;99.90;;;;;;5015333;28;20040;-78
2023/01/20 04:32:10;;;;;;;69.07;31.27;;;3.10;99.90;;;;;;5034938;28;20041;-79
2023/01/20 04:34:36;;;;;;;66.72;32.90;;;3.10;99.90;;;;;;5018695;28;20033;-78
2023/01/20 04:37:01;;;;;;;67.82;33.50;;;3.10;99.90;;;;;;5036679;28;20029;-78
2023/01/20 04:39:27;;;;;;;67.68;32.80;;;3.10;99.90;;;;;;5018502;28;20116;-78
2023/01/20 04:41:52;;;;;;;66.20;32.50;;;3.10;99.90;;;;;;5034814;28;20127;-78
2023/01/20 04:44:18;;;;;;;60.03;30.27;;;3.10;99.90;;;;;;5035629;28;20087;-79
2023/01/20 04:46:46;;;;;;;66.78;32.28;;;3.10;99.90;;;;;;5034798;28;20057;-78
2023/01/20 04:49:12;;;;;;;68.47;31.90;;;3.20;99.90;;;;;;5019156;28;20087;-78
2023/01/20 04:51:38;;;;;;;64.85;32.67;;;3.20;99.90;;;;;;5018470;28;20045;-78
2023/01/20 04:54:03;;;;;;;58.97;29.58;;;3.20;99.90;;;;;;5036496;28;20033;-79
2023/01/20 04:56:29;;;;;;;62.75;30.75;;;3.30;99.90;;;;;;5036661;28;20032;-78
2023/01/20 04:58:55;;;;;;;63.53;30.05;;;3.30;99.90;;;;;;5034904;28;20040;-78
2023/01/20 05:01:20;;;;;;;70.07;30.52;;;3.20;99.90;;;;;;5034653;28;20131;-78
2023/01/20 05:03:46;;;;;;;65.43;31.33;;;3.10;99.90;;;;;;5035071;28;20049;-78
2023/01/20 05:06:12;;;;;;;64.35;29.73;;;3.20;99.90;;;;;;5034972;28;20030;-84
2023/01/20 05:08:38;;;;;;;64.45;30.92;;;3.20;99.90;;;;;;5034555;28;20125;-78
2023/01/20 05:11:04;;;;;;;58.88;28.02;;;3.20;99.90;;;;;;5018365;28;20124;-78
2023/01/20 05:13:30;;;;;;;63.67;29.98;;;3.20;99.90;;;;;;5036091;28;20037;-79
2023/01/20 05:15:56;;;;;;;64.53;29.25;;;3.20;99.90;;;;;;5001844;28;20033;-82
2023/01/20 05:18:22;;;;;;;61.88;29.85;;;3.20;99.90;;;;;;5034665;28;20053;-79
2023/01/20 05:20:49;;;;;;;62.17;29.95;;;3.20;99.90;;;;;;5017215;28;20087;-78
2023/01/20 05:23:15;;;;;;;62.78;30.63;;;3.20;99.90;;;;;;5017790;28;20389;-79
2023/01/20 05:25:41;;;;;;;60.95;30.30;;;3.20;99.90;;;;;;5017994;28;20040;-78
2023/01/20 05:28:07;;;;;;;62.92;30.10;;;3.30;99.90;;;;;;5035618;28;20025;-78
2023/01/20 05:30:33;;;;;;;63.08;30.08;;;3.30;99.90;;;;;;5018176;28;20037;-74
2023/01/20 05:32:59;;;;;;;59.40;28.73;;;3.40;99.90;;;;;;5033269;28;20038;-73
2023/01/20 05:35:24;;;;;;;57.85;28.17;;;3.30;99.90;;;;;;5033379;28;20036;-74
2023/01/20 05:37:54;;;;;;;63.90;28.88;;;3.30;99.90;;;;;;5034280;28;20057;-74
2023/01/20 05:40:20;;;;;;;59.58;29.00;;;3.30;99.90;;;;;;5034449;28;20053;-74
2023/01/20 05:42:46;;;;;;;60.08;28.23;;;3.20;99.90;;;;;;5033385;28;20083;-74
2023/01/20 05:45:12;;;;;;;53.15;26.38;;;3.20;99.90;;;;;;5032949;28;20034;-73
2023/01/20 05:47:37;;;;;;;57.50;27.95;;;3.20;99.90;;;;;;5032912;28;20271;-73
2023/01/20 05:50:04;;;;;;;50.60;25.17;;;3.30;99.90;;;;;;5034174;28;20446;-73
2023/01/20 05:52:29;;;;;;;49.47;25.35;;;3.30;99.90;;;;;;5033501;28;20044;-73
2023/01/20 05:54:55;;;;;;;48.35;24.38;;;3.20;99.90;;;;;;5032795;28;20033;-73
2023/01/20 05:57:23;;;;;;;50.58;24.42;;;3.10;99.90;;;;;;5034322;28;20029;-73
2023/01/20 05:59:50;;;;;;;50.05;24.83;;;3.20;99.90;;;;;;5016214;28;20517;-73
2023/01/20 06:02:18;;;;;;;49.30;24.77;;;3.20;99.90;;;;;;5032927;28;20065;-73
2023/01/20 06:04:46;;;;;;;45.80;23.98;;;3.20;99.90;;;;;;5034175;28;20041;-73
2023/01/20 06:07:13;;;;;;;49.10;24.88;;;3.20;99.90;;;;;;5033596;28;20431;-74
2023/01/20 06:09:39;;;;;;;52.47;26.02;;;3.20;99.90;;;;;;5033269;28;20029;-74
2023/01/20 06:12:06;;;;;;;53.60;25.92;;;3.30;99.90;;;;;;5001289;28;20102;-74
2023/01/20 06:14:31;;;;;;;48.58;24.20;;;3.30;99.90;;;;;;5035757;28;20470;-73
2023/01/20 06:16:57;;;;;;;48.67;24.48;;;3.30;99.90;;;;;;5005588;28;20030;-74
2023/01/20 06:19:22;;;;;;;53.35;26.20;;;3.30;99.90;;;;;;5038410;28;20045;-74
2023/01/20 06:21:48;;;;;;;47.80;24.58;;;3.40;99.90;;;;;;5035401;28;20299;-72
2023/01/20 06:24:14;;;;;;;47.17;24.10;;;3.40;99.90;;;;;;5035303;28;20037;-72
2023/01/20 06:26:39;;;;;;;47.15;23.98;;;3.40;99.90;;;;;;5032364;28;20029;-72
2023/01/20 06:29:05;;;;;;;44.88;22.92;;;3.40;99.90;;;;;;5032342;28;20029;-72
2023/01/20 06:31:30;;;;;;;43.50;22.00;;;3.50;99.90;;;;;;5033387;28;20034;-72
2023/01/20 06:33:56;;;;;;;54.63;25.08;;;3.40;99.90;;;;;;5015855;28;20033;-72
2023/01/20 06:36:22;;;;;;;44.72;23.98;;;3.40;99.90;;;;;;5032779;28;20030;-72
2023/01/20 06:38:49;;;;;;;46.83;23.20;;;3.40;99.90;;;;;;5033496;28;20116;-71
2023/01/20 06:41:16;;;;;;;43.67;23.08;;;3.60;99.90;;;;;;5016047;28;20080;-72
2023/01/20 06:43:43;;;;;;;47.75;24.67;;;3.60;99.90;;;;;;5033872;28;20033;-72
2023/01/20 06:46:14;;;;;;;49.78;24.45;;;3.60;99.90;;;;;;5031525;28;20061;-72
2023/01/20 06:48:40;;;;;;;42.88;22.80;;;3.60;99.90;;;;;;5033300;28;20040;-71
2023/01/20 06:51:12;;;;;;;45.33;22.75;;;3.60;99.90;;;;;;5033215;28;20035;-74
2023/01/20 06:53:37;;;;;;;47.10;24.27;;;3.60;99.90;;;;;;5033396;28;20018;-72
2023/01/20 06:56:04;;;;;;;45.67;23.42;;;3.60;99.90;;;;;;5033222;28;20029;-72
2023/01/20 06:58:31;;;;;;;45.38;23.02;;;3.60;99.90;;;;;;5033726;28;20060;-78
2023/01/20 07:01:03;;;;;;;43.28;22.00;;;3.50;99.90;;;;;;5031857;28;20065;-78
2023/01/20 07:03:28;;;;;;;49.25;25.10;;;3.50;99.90;;;;;;5031682;28;20135;-78
2023/01/20 07:06:01;;;;;;;47.95;22.73;;;3.60;99.90;;;;;;5031311;28;20082;-77
2023/01/20 07:08:27;;;;;;;44.08;22.05;;;3.50;99.90;;;;;;5033262;28;20446;-78
2023/01/20 07:10:53;;;;;;;51.33;24.95;;;3.50;99.90;;;;;;5031821;28;20029;-75
2023/01/20 07:13:18;;;;;;;51.88;25.35;;;3.60;99.90;;;;;;5031555;28;20489;-74
2023/01/20 07:15:44;;;;;;;52.60;24.55;;;3.60;99.90;;;;;;5031596;28;20474;-75
2023/01/20 07:18:10;;;;;;;50.92;26.80;;;3.60;99.90;;;;;;5033071;28;20114;-75
2023/01/20 07:20:37;;;;;;;54.35;26.80;;;3.60;99.90;;;;;;5031750;28;20033;-76
2023/01/20 07:23:03;;;;;;;55.35;27.77;;;3.60;99.90;;;;;;5032964;28;20227;-76
2023/01/20 07:25:29;;;;;;;53.42;26.98;;;3.60;99.90;;;;;;5031647;28;20036;-75
2023/01/20 07:27:56;;;;;;;53.75;27.15;;;3.50;99.90;;;;;;5032737;28;20030;-75
2023/01/20 07:30:23;;;;;;;55.15;27.23;;;3.50;99.90;;;;;;5015378;28;20087;-76
2023/01/20 07:32:49;;;;;;;51.80;25.90;;;3.60;99.90;;;;;;5031884;28;20033;-74
2023/01/20 07:35:14;;;;;;;50.15;26.33;;;3.50;99.90;;;;;;5031570;28;20025;-76
2023/01/20 07:37:40;;;;;;;54.97;27.70;;;3.40;99.90;;;;;;5031576;28;20080;-76
2023/01/20 07:40:07;;;;;;;46.08;24.08;;;3.40;99.90;;;;;;5015404;28;20040;-71
2023/01/20 07:42:35;;;;;;;51.70;26.33;;;3.50;99.90;;;;;;5031143;28;20033;-75
2023/01/20 07:45:01;;;;;;;55.45;27.50;;;3.50;99.90;;;;;;5015499;28;20045;-76
2023/01/20 07:47:26;;;;;;;53.97;27.30;;;3.60;99.90;;;;;;5031166;28;20176;-76
2023/01/20 07:49:52;;;;;;;50.83;27.42;;;3.60;99.90;;;;;;5015074;28;20136;-75
2023/01/20 07:52:17;;;;;;;51.72;24.58;;;3.70;99.90;;;;;;4998688;28;20037;-75
2023/01/20 07:54:43;;;;;;;52.45;27.52;;;3.70;99.90;;;;;;4998275;28;20086;-76
2023/01/20 07:57:09;;;;;;;47.63;25.23;;;3.80;99.90;;;;;;5015075;28;20037;-76
2023/01/20 07:59:34;;;;;;;46.78;24.48;;;3.90;99.90;;;;;;5032884;28;20029;-75
2023/01/20 08:02:00;;;;;;;50.20;25.70;;;4.00;99.90;;;;;;5015921;28;20095;-76
2023/01/20 08:04:26;;;;;;;52.65;26.15;;;3.90;99.90;;;;;;5020311;28;20044;-76
2023/01/20 08:06:51;;;;;;;49.75;26.38;;;4.00;99.90;;;;;;5039893;28;20112;-74
2023/01/20 08:09:17;;;;;;;44.60;24.63;;;4.00;99.90;;;;;;5019371;28;20032;-76
2023/01/20 08:11:43;;;;;;;49.72;27.38;;;4.00;99.90;;;;;;5019316;28;20033;-76
2023/01/20 08:14:08;;;;;;;47.50;24.42;;;4.00;99.90;;;;;;5002780;28;20033;-75
2023/01/20 08:16:34;;;;;;;56.35;26.52;;;4.00;99.90;;;;;;5034950;28;20124;-76
2023/01/20 08:19:00;;;;;;;55.75;28.58;;;3.90;99.90;;;;;;5034936;28;20032;-75
2023/01/20 08:21:32;;;;;;;50.05;27.33;;;3.90;99.90;;;;;;5018413;28;20040;-75
2023/01/20 08:23:59;;;;;;;59.58;27.20;;;3.90;99.90;;;;;;5036600;28;20083;-75
2023/01/20 08:26:28;;;;;;;55.63;28.60;;;4.00;99.90;;;;;;5036697;28;20028;-76
2023/01/20 08:28:54;;;;;;;53.65;28.05;;;4.10;99.90;;;;;;5035863;28;20462;-75
2023/01/20 08:31:22;;;;;;;53.42;28.98;;;4.00;99.90;;;;;;5018339;28;20477;-75
2023/01/20 08:33:51;;;;;;;51.05;26.85;;;4.00;99.90;;;;;;5034771;28;20429;-75
2023/01/20 08:36:27;;;;;;;50.65;26.98;;;4.00;99.90;;;;;;5018573;28;20079;-75
2023/01/20 08:38:54;;;;;;;57.63;28.77;;;4.10;99.90;;;;;;5035981;28;20034;-74
2023/01/20 08:41:24;;;;;;;54.60;28.88;;;4.10;99.90;;;;;;5034909;28;20045;-74
2023/01/20 08:43:50;;;;;;;54.03;29.50;;;4.10;99.90;;;;;;5035219;28;20429;-74
2023/01/20 08:46:17;;;;;;;58.33;28.85;;;4.10;99.90;;;;;;5035307;28;20052;-75
2023/01/20 08:48:45;;;;;;;61.83;29.25;;;4.10;99.90;;;;;;5034988;28;20041;-75
2023/01/20 08:51:14;;;;;;;59.88;29.27;;;4.20;99.90;;;;;;5034196;28;20041;-74
2023/01/20 08:53:41;;;;;;;56.35;28.30;;;4.20;99.90;;;;;;5034690;28;20029;-74
2023/01/20 08:56:07;;;;;;;53.88;28.08;;;4.30;99.90;;;;;;5036103;28;20463;-75
2023/01/20 08:58:33;;;;;;;58.50;28.98;;;4.30;99.90;;;;;;5034419;28;20116;-75
2023/01/20 09:00:59;;;;;;;54.63;27.98;;;4.30;99.90;;;;;;5034443;28;20041;-75
2023/01/20 09:03:26;;;;;;;51.25;27.05;;;4.30;99.90;;;;;;5033870;28;20029;-75
2023/01/20 09:05:51;;;;;;;47.40;25.40;;;4.40;99.90;;;;;;5034390;28;20482;-75
2023/01/20 09:08:18;;;;;;;51.67;27.55;;;4.40;99.90;;;;;;5033907;28;20036;-75
2023/01/20 09:10:44;;;;;;;49.58;25.58;;;4.50;99.90;;;;;;5034584;28;20088;-75
2023/01/20 09:13:10;;;;;;;52.72;26.95;;;4.50;99.90;;;;;;5033996;28;20109;-75
2023/01/20 09:15:36;;;;;;;50.33;26.17;;;4.50;99.90;;;;;;5034164;28;20155;-75
2023/01/20 09:18:02;;;;;;;52.67;27.33;;;4.50;99.90;;;;;;5016985;28;20037;-75
2023/01/20 09:20:29;;;;;;;50.40;27.08;;;4.40;99.90;;;;;;5033970;28;20025;-75
2023/01/20 09:22:55;;;;;;;48.45;25.90;;;4.40;99.90;;;;;;5034971;28;20072;-75
2023/01/20 09:25:20;;;;;;;49.08;27.70;;;4.50;99.90;;;;;;5017509;28;20040;-75
2023/01/20 09:27:46;;;;;;;52.05;26.90;;;4.50;99.90;;;;;;5033573;28;20033;-74
2023/01/20 09:30:12;;;;;;;54.33;26.63;;;4.50;99.90;;;;;;5033520;28;20040;-74
2023/01/20 09:32:38;;;;;;;46.05;25.30;;;4.40;99.90;;;;;;5034659;28;20414;-76
2023/01/20 09:35:04;;;;;;;47.78;25.85;;;4.30;99.90;;;;;;5033247;28;20450;-76
2023/01/20 09:43:55;;;;;;;52.20;26.95;;;4.40;99.90;;;;;;5034373;28;20453;-75
2023/01/20 09:47:18;;;;;;;48.05;25.05;;;4.40;99.90;;;;;;5015122;28;20236;-76
2023/01/20 09:53:19;;;;;;;48.25;24.80;;;4.50;99.90;;;;;;5035726;28;20113;-76
2023/01/20 09:55:44;;;;;;;51.97;24.67;;;4.50;99.90;;;;;;5036314;28;20442;-75
2023/01/20 09:58:48;;;;;;;43.20;23.58;;;4.50;99.90;;;;;;5035623;28;20032;-75
2023/01/20 10:01:43;;;;;;;50.97;26.00;;;4.50;99.90;;;;;;5034661;28;20045;-75
2023/01/20 10:04:16;;;;;;;40.22;22.20;;;4.50;99.90;;;;;;5033550;28;20029;-75
2023/01/20 10:06:51;;;;;;;45.42;23.77;;;4.60;99.90;;;;;;5033971;28;20052;-75
2023/01/20 10:09:51;;;;;;;47.55;24.85;;;4.50;99.90;;;;;;5033402;28;20092;-74
2023/01/20 10:12:41;;;;;;;44.17;25.02;;;4.60;99.90;;;;;;5034286;28;20029;-74
2023/01/20 10:15:17;;;;;;;48.40;24.45;;;4.60;99.90;;;;;;5032818;28;20028;-74
2023/01/20 10:18:08;;;;;;;45.42;25.20;;;4.60;99.90;;;;;;5033191;28;20033;-74
2023/01/20 10:20:54;;;;;;;45.38;24.15;;;4.60;99.90;;;;;;5034202;28;20068;-74
2023/01/20 10:23:28;;;;;;;50.90;26.15;;;4.60;99.90;;;;;;5033998;28;20033;-74
2023/01/20 10:26:17;;;;;;;49.58;26.17;;;4.70;99.90;;;;;;5032511;28;20026;-74
2023/01/20 10:28:51;;;;;;;43.22;24.90;;;4.60;99.90;;;;;;5031997;28;20025;-74
2023/01/20 10:31:24;;;;;;;43.97;23.88;;;4.60;99.90;;;;;;5032844;28;20476;-74
2023/01/20 10:33:52;;;;;;;44.78;23.92;;;4.70;99.90;;;;;;5032508;28;20029;-74
2023/01/20 10:36:26;;;;;;;44.70;25.33;;;4.60;99.90;;;;;;5016581;28;20465;-74
2023/01/20 10:39:09;;;;;;;46.30;25.23;;;4.70;99.90;;;;;;5032379;28;20044;-74
2023/01/20 10:42:12;;;;;;;40.30;23.15;;;4.70;99.90;;;;;;5031852;28;20040;-74
2023/01/20 10:44:38;;;;;;;43.75;24.90;;;4.70;99.90;;;;;;5022263;28;20025;-75
2023/01/20 10:47:25;;;;;;;43.80;25.70;;;4.80;99.90;;;;;;5033257;28;20102;-72
2023/01/20 10:50:00;;;;;;;42.95;25.00;;;4.80;99.90;;;;;;5033116;28;20473;-72
2023/01/20 10:52:51;;;;;;;46.90;25.38;;;4.80;99.90;;;;;;5033230;28;20033;-72
2023/01/20 10:55:43;;;;;;;44.00;24.48;;;4.90;99.90;;;;;;5033282;28;20026;-72
2023/01/20 10:58:27;;;;;;;43.35;25.02;;;4.90;99.90;;;;;;5028735;28;20037;-73
2023/01/20 11:00:54;;;;;;;42.20;24.25;;;4.90;99.90;;;;;;5031523;28;20034;-73
2023/01/20 11:03:21;;;;;;;42.60;25.80;;;4.90;99.90;;;;;;5031460;28;20033;-72
2023/01/20 11:05:49;;;;;;;45.65;25.67;;;4.90;99.90;;;;;;5032940;28;20026;-73
2023/01/20 11:08:18;;;;;;;40.08;24.02;;;4.90;99.90;;;;;;5033186;28;20060;-73
2023/01/20 11:10:45;;;;;;;42.50;25.38;;;4.90;99.90;;;;;;5031672;28;20386;-73
2023/01/20 11:13:11;;;;;;;39.50;23.92;;;4.90;99.90;;;;;;5031664;28;20025;-72
2023/01/20 11:15:45;;;;;;;43.85;25.02;;;5.00;99.90;;;;;;5031636;28;20113;-72
2023/01/20 11:18:14;;;;;;;39.97;23.88;;;5.00;99.90;;;;;;5032456;28;20065;-72
2023/01/20 11:21:10;;;;;;;42.13;24.65;;;5.00;99.90;;;;;;5031408;28;20052;-72
2023/01/20 11:23:51;;;;;;;40.05;24.45;;;5.10;99.90;;;;;;5032711;28;20101;-72
2023/01/20 11:26:30;;;;;;;34.88;21.60;;;5.20;99.90;;;;;;5032911;28;20018;-73
2023/01/20 11:28:59;;;;;;;36.67;22.65;;;5.20;99.90;;;;;;5031953;28;20072;-73
2023/01/20 11:31:43;;;;;;;38.17;23.67;;;5.20;99.90;;;;;;5032806;28;20025;-73
2023/01/20 11:34:28;;;;;;;36.75;23.17;;;5.10;99.90;;;;;;5033179;28;20036;-73
2023/01/20 11:37:06;;;;;;;33.88;21.85;;;5.10;99.90;;;;;;5034932;28;20108;-72
2023/01/20 11:39:41;;;;;;;32.15;21.17;;;5.10;99.90;;;;;;5034269;28;20036;-73
2023/01/20 11:42:13;;;;;;;32.90;20.20;;;5.10;99.90;;;;;;5036707;28;20398;-71
2023/01/20 11:45:03;;;;;;;31.03;19.50;;;5.10;99.90;;;;;;5035815;28;20068;-72
2023/01/20 11:47:36;;;;;;;32.30;20.85;;;5.10;99.90;;;;;;5036968;28;20061;-73
2023/01/20 11:50:08;;;;;;;30.25;19.35;;;5.00;99.90;;;;;;5036675;28;20105;-71
2023/01/20 11:52:36;;;;;;;28.60;19.55;;;4.90;99.90;;;;;;5036710;28;20029;-72
2023/01/20 11:55:11;;;;;;;29.88;19.42;;;4.90;99.90;;;;;;5036654;28;20035;-73
2023/01/20 11:57:51;;;;;;;32.15;19.83;;;4.90;99.90;;;;;;5036580;28;20105;-73
2023/01/20 12:00:48;;;;;;;30.35;19.80;;;4.90;99.90;;;;;;5036826;28;20059;-74
2023/01/20 12:03:32;;;;;;;28.90;19.02;;;4.90;99.90;;;;;;5031744;28;20103;-70
2023/01/20 12:06:19;;;;;;;30.67;20.08;;;4.90;99.90;;;;;;5036268;28;20029;-73
2023/01/20 12:09:09;;;;;;;29.90;19.77;;;4.90;99.90;;;;;;5036644;28;20104;-72
2023/01/20 12:11:56;;;;;;;26.50;17.75;;;4.90;99.90;;;;;;5035153;28;20036;-73
2023/01/20 12:14:33;;;;;;;27.85;17.95;;;4.80;99.90;;;;;;5035597;28;20037;-72
2023/01/20 12:17:02;;;;;;;29.75;18.45;;;4.70;99.90;;;;;;5036562;28;20026;-73
2023/01/20 12:19:49;;;;;;;27.98;18.17;;;4.70;99.90;;;;;;5036245;28;20085;-72
2023/01/20 12:22:24;;;;;;;27.02;17.35;;;4.60;99.90;;;;;;5035348;28;20041;-72
2023/01/20 12:25:09;;;;;;;28.77;18.10;;;4.70;99.90;;;;;;5036110;28;20104;-72
2023/01/20 12:27:42;;;;;;;25.65;17.13;;;4.80;99.90;;;;;;5035106;28;20399;-73
2023/01/20 12:30:34;;;;;;;24.58;16.02;;;4.80;99.90;;;;;;5036048;28;20022;-72
2023/01/20 12:33:00;;;;;;;27.50;17.52;;;4.80;99.90;;;;;;5034905;28;20026;-73
2023/01/20 12:35:32;;;;;;;25.88;17.45;;;4.90;99.90;;;;;;5018446;28;20083;-73
2023/01/20 12:38:07;;;;;;;28.10;17.50;;;4.90;99.90;;;;;;5035761;28;20056;-73
2023/01/20 12:40:46;;;;;;;24.45;16.60;;;4.90;99.90;;;;;;5035856;28;20041;-73
2023/01/20 12:43:32;;;;;;;22.85;15.65;;;4.80;99.90;;;;;;5035857;28;20037;-73
2023/01/20 12:46:02;;;;;;;22.30;14.80;;;4.80;99.90;;;;;;5035215;28;20109;-73
2023/01/20 12:48:52;;;;;;;19.80;15.10;;;4.80;99.90;;;;;;5034910;28;20061;-73
2023/01/20 12:51:34;;;;;;;20.83;14.85;;;4.80;99.90;;;;;;5035698;28;20342;-73
2023/01/20 12:54:14;;;;;;;20.30;15.25;;;4.80;99.90;;;;;;5034876;28;20034;-73
2023/01/20 12:56:43;;;;;;;20.33;14.90;;;4.80;99.90;;;;;;5033683;28;20025;-73
2023/01/20 12:59:42;;;;;;;20.15;13.98;;;4.80;99.90;;;;;;5033522;28;20120;-73
2023/01/20 13:02:19;;;;;;;19.08;13.95;;;4.90;99.90;;;;;;5032921;28;20064;-73
2023/01/20 13:05:04;;;;;;;19.17;14.30;;;4.90;99.90;;;;;;5034089;28;20022;-72
2023/01/20 13:07:35;;;;;;;18.30;14.07;;;5.00;99.90;;;;;;5034878;28;20029;-73
2023/01/20 13:10:13;;;;;;;19.23;13.98;;;5.10;99.90;;;;;;5034850;28;20087;-73